sensor_id;sensor_type;location;lat;lon;timestamp;pressure;altitude;pressure_sealevel;temperature;humidity
38630;BME280;24384;51.988;4.644;2023-07-16T00:01:56;100790.00;;;16.73;78.08
38630;BME280;24384;51.988;4.644;2023-07-16T00:04:22;100786.41;;;16.74;78.66
38630;BME280;24384;51.988;4.644;2023-07-16T00:06:47;100791.09;;;16.70;78.55
38630;BME280;24384;51.988;4.644;2023-07-16T00:09:12;100791.84;;;16.72;78.87
38630;BME280;24384;51.988;4.644;2023-07-16T00:11:37;100791.34;;;16.65;79.26
38630;BME280;24384;51.988;4.644;2023-07-16T00:14:03;100792.56;;;16.60;79.04
38630;BME280;24384;51.988;4.644;2023-07-16T00:16:28;100796.16;;;16.59;79.63
38630;BME280;24384;51.988;4.644;2023-07-16T00:18:54;100791.81;;;16.58;78.80
38630;BME280;24384;51.988;4.644;2023-07-16T00:21:19;100792.69;;;16.73;78.86
38630;BME280;24384;51.988;4.644;2023-07-16T00:23:46;100800.84;;;16.70;78.71
38630;BME280;24384;51.988;4.644;2023-07-16T00:26:12;100792.09;;;16.68;79.31
38630;BME280;24384;51.988;4.644;2023-07-16T00:28:38;100788.78;;;16.64;79.36
38630;BME280;24384;51.988;4.644;2023-07-16T00:31:03;100796.06;;;16.60;79.79
38630;BME280;24384;51.988;4.644;2023-07-16T00:33:28;100784.97;;;16.68;79.10
38630;BME280;24384;51.988;4.644;2023-07-16T00:35:54;100787.31;;;16.58;79.35
38630;BME280;24384;51.988;4.644;2023-07-16T00:38:19;100786.38;;;16.59;80.30
38630;BME280;24384;51.988;4.644;2023-07-16T00:40:46;100790.25;;;16.54;80.13
38630;BME280;24384;51.988;4.644;2023-07-16T00:43:11;100791.72;;;16.59;80.56
38630;BME280;24384;51.988;4.644;2023-07-16T00:45:38;100794.81;;;16.52;80.32
38630;BME280;24384;51.988;4.644;2023-07-16T00:48:06;100792.88;;;16.39;81.62
38630;BME280;24384;51.988;4.644;2023-07-16T00:50:32;100797.41;;;16.53;80.73
38630;BME280;24384;51.988;4.644;2023-07-16T00:53:00;100799.06;;;16.40;81.57
38630;BME280;24384;51.988;4.644;2023-07-16T00:55:27;100800.34;;;16.49;81.20
38630;BME280;24384;51.988;4.644;2023-07-16T00:57:53;100805.75;;;16.47;81.81
38630;BME280;24384;51.988;4.644;2023-07-16T01:00:18;100805.75;;;16.47;81.74
38630;BME280;24384;51.988;4.644;2023-07-16T01:02:43;100807.88;;;16.40;81.61
38630;BME280;24384;51.988;4.644;2023-07-16T01:05:09;100807.03;;;16.40;82.22
38630;BME280;24384;51.988;4.644;2023-07-16T01:07:36;100800.00;;;16.39;81.65
38630;BME280;24384;51.988;4.644;2023-07-16T01:10:02;100803.72;;;16.36;82.66
38630;BME280;24384;51.988;4.644;2023-07-16T01:12:31;100811.91;;;16.47;81.62
38630;BME280;24384;51.988;4.644;2023-07-16T01:14:57;100793.56;;;16.43;82.22
38630;BME280;24384;51.988;4.644;2023-07-16T01:17:23;100796.56;;;16.37;81.56
38630;BME280;24384;51.988;4.644;2023-07-16T01:19:48;100807.47;;;16.32;83.39
38630;BME280;24384;51.988;4.644;2023-07-16T01:22:28;100804.56;;;16.37;83.20
38630;BME280;24384;51.988;4.644;2023-07-16T01:28:02;100806.94;;;16.41;82.43
38630;BME280;24384;51.988;4.644;2023-07-16T01:30:31;100805.31;;;16.39;81.86
38630;BME280;24384;51.988;4.644;2023-07-16T01:32:57;100805.41;;;16.37;81.87
38630;BME280;24384;51.988;4.644;2023-07-16T01:35:23;100808.50;;;16.45;82.02
38630;BME280;24384;51.988;4.644;2023-07-16T01:37:48;100807.31;;;16.35;82.27
38630;BME280;24384;51.988;4.644;2023-07-16T01:40:14;100801.91;;;16.37;81.77
38630;BME280;24384;51.988;4.644;2023-07-16T01:42:39;100813.22;;;16.40;81.90
38630;BME280;24384;51.988;4.644;2023-07-16T01:45:05;100815.03;;;16.40;82.10
38630;BME280;24384;51.988;4.644;2023-07-16T01:50:24;100816.31;;;16.33;81.81
38630;BME280;24384;51.988;4.644;2023-07-16T01:52:49;100811.09;;;16.31;82.65
38630;BME280;24384;51.988;4.644;2023-07-16T01:55:15;100805.41;;;16.37;81.99
38630;BME280;24384;51.988;4.644;2023-07-16T01:57:40;100807.41;;;16.34;82.71
38630;BME280;24384;51.988;4.644;2023-07-16T02:00:06;100817.53;;;16.27;83.27
38630;BME280;24384;51.988;4.644;2023-07-16T02:02:33;100813.16;;;16.26;83.49
38630;BME280;24384;51.988;4.644;2023-07-16T02:04:58;100822.69;;;16.30;83.72
38630;BME280;24384;51.988;4.644;2023-07-16T02:07:23;100812.03;;;16.30;83.16
38630;BME280;24384;51.988;4.644;2023-07-16T02:09:49;100821.22;;;16.24;83.95
38630;BME280;24384;51.988;4.644;2023-07-16T02:12:14;100808.84;;;16.23;83.80
38630;BME280;24384;51.988;4.644;2023-07-16T02:14:40;100816.53;;;16.14;84.05
38630;BME280;24384;51.988;4.644;2023-07-16T02:17:05;100811.78;;;16.19;84.20
38630;BME280;24384;51.988;4.644;2023-07-16T02:19:31;100815.41;;;16.18;83.82
38630;BME280;24384;51.988;4.644;2023-07-16T02:21:57;100811.78;;;16.19;83.96
38630;BME280;24384;51.988;4.644;2023-07-16T02:24:22;100809.91;;;16.21;84.25
38630;BME280;24384;51.988;4.644;2023-07-16T02:26:47;100812.56;;;16.21;84.42
38630;BME280;24384;51.988;4.644;2023-07-16T02:29:13;100804.06;;;16.14;84.72
38630;BME280;24384;51.988;4.644;2023-07-16T02:31:38;100811.59;;;16.22;84.78
38630;BME280;24384;51.988;4.644;2023-07-16T02:34:03;100813.78;;;16.15;85.58
38630;BME280;24384;51.988;4.644;2023-07-16T02:36:28;100805.69;;;16.17;84.93
38630;BME280;24384;51.988;4.644;2023-07-16T02:38:54;100817.28;;;16.16;84.77
38630;BME280;24384;51.988;4.644;2023-07-16T02:41:19;100814.53;;;16.17;85.31
38630;BME280;24384;51.988;4.644;2023-07-16T02:43:45;100820.72;;;16.18;84.65
38630;BME280;24384;51.988;4.644;2023-07-16T02:46:11;100817.00;;;16.20;85.08
38630;BME280;24384;51.988;4.644;2023-07-16T02:48:36;100818.16;;;16.16;85.50
38630;BME280;24384;51.988;4.644;2023-07-16T02:51:03;100823.81;;;16.26;85.08
38630;BME280;24384;51.988;4.644;2023-07-16T02:53:28;100822.44;;;16.19;85.07
38630;BME280;24384;51.988;4.644;2023-07-16T02:55:53;100811.38;;;16.10;85.88
38630;BME280;24384;51.988;4.644;2023-07-16T02:58:18;100818.16;;;16.00;86.92
38630;BME280;24384;51.988;4.644;2023-07-16T03:00:44;100819.88;;;16.01;87.27
38630;BME280;24384;51.988;4.644;2023-07-16T03:03:09;100834.63;;;15.91;87.90
38630;BME280;24384;51.988;4.644;2023-07-16T03:05:34;100824.31;;;15.85;88.16
38630;BME280;24384;51.988;4.644;2023-07-16T03:07:59;100820.66;;;15.87;87.93
38630;BME280;24384;51.988;4.644;2023-07-16T03:10:25;100820.22;;;15.79;89.21
38630;BME280;24384;51.988;4.644;2023-07-16T03:12:52;100818.81;;;15.88;88.39
38630;BME280;24384;51.988;4.644;2023-07-16T03:15:17;100826.72;;;15.89;88.08
38630;BME280;24384;51.988;4.644;2023-07-16T03:17:44;100832.84;;;15.91;87.78
38630;BME280;24384;51.988;4.644;2023-07-16T03:20:09;100831.03;;;15.92;86.52
38630;BME280;24384;51.988;4.644;2023-07-16T03:22:35;100836.00;;;15.98;86.58
38630;BME280;24384;51.988;4.644;2023-07-16T03:25:00;100843.38;;;15.93;87.18
38630;BME280;24384;51.988;4.644;2023-07-16T03:27:26;100845.97;;;15.95;86.86
38630;BME280;24384;51.988;4.644;2023-07-16T03:29:51;100835.50;;;15.91;86.68
38630;BME280;24384;51.988;4.644;2023-07-16T03:32:16;100856.06;;;15.88;86.73
38630;BME280;24384;51.988;4.644;2023-07-16T03:34:41;100850.50;;;15.92;86.45
38630;BME280;24384;51.988;4.644;2023-07-16T03:37:07;100859.50;;;15.90;86.72
38630;BME280;24384;51.988;4.644;2023-07-16T03:39:32;100858.47;;;15.92;86.36
38630;BME280;24384;51.988;4.644;2023-07-16T03:41:57;100862.09;;;15.91;87.09
38630;BME280;24384;51.988;4.644;2023-07-16T03:44:23;100874.84;;;15.85;87.02
38630;BME280;24384;51.988;4.644;2023-07-16T03:46:48;100867.75;;;15.85;86.51
38630;BME280;24384;51.988;4.644;2023-07-16T03:49:13;100871.16;;;15.87;86.57
38630;BME280;24384;51.988;4.644;2023-07-16T03:51:38;100873.91;;;15.86;86.99
38630;BME280;24384;51.988;4.644;2023-07-16T03:54:04;100882.81;;;15.85;86.64
38630;BME280;24384;51.988;4.644;2023-07-16T03:56:29;100887.03;;;15.89;85.90
38630;BME280;24384;51.988;4.644;2023-07-16T03:58:54;100881.56;;;15.92;85.87
38630;BME280;24384;51.988;4.644;2023-07-16T04:01:19;100886.72;;;15.95;85.73
38630;BME280;24384;51.988;4.644;2023-07-16T04:03:45;100884.56;;;15.86;86.75
38630;BME280;24384;51.988;4.644;2023-07-16T04:06:12;100885.47;;;15.85;85.87
38630;BME280;24384;51.988;4.644;2023-07-16T04:08:38;100891.09;;;15.80;86.07
38630;BME280;24384;51.988;4.644;2023-07-16T04:11:06;100897.41;;;15.78;85.25
38630;BME280;24384;51.988;4.644;2023-07-16T04:13:32;100901.34;;;15.86;84.89
38630;BME280;24384;51.988;4.644;2023-07-16T04:15:58;100904.97;;;15.85;85.83
38630;BME280;24384;51.988;4.644;2023-07-16T04:18:24;100904.19;;;15.83;84.79
38630;BME280;24384;51.988;4.644;2023-07-16T04:20:50;100916.31;;;15.89;84.07
38630;BME280;24384;51.988;4.644;2023-07-16T04:23:15;100905.06;;;15.84;85.22
38630;BME280;24384;51.988;4.644;2023-07-16T04:25:40;100909.34;;;15.86;84.94
38630;BME280;24384;51.988;4.644;2023-07-16T04:28:05;100915.38;;;15.90;84.42
38630;BME280;24384;51.988;4.644;2023-07-16T04:30:31;100903.94;;;15.88;85.27
38630;BME280;24384;51.988;4.644;2023-07-16T04:32:56;100910.91;;;15.90;84.87
38630;BME280;24384;51.988;4.644;2023-07-16T04:35:21;100921.38;;;15.93;85.33
38630;BME280;24384;51.988;4.644;2023-07-16T04:37:47;100907.75;;;16.00;84.18
38630;BME280;24384;51.988;4.644;2023-07-16T04:40:12;100920.38;;;16.12;84.45
38630;BME280;24384;51.988;4.644;2023-07-16T04:42:37;100918.47;;;16.14;83.94
38630;BME280;24384;51.988;4.644;2023-07-16T04:45:03;100919.00;;;16.21;83.78
38630;BME280;24384;51.988;4.644;2023-07-16T04:47:29;100923.81;;;16.30;83.26
38630;BME280;24384;51.988;4.644;2023-07-16T04:49:54;100928.25;;;16.29;83.53
38630;BME280;24384;51.988;4.644;2023-07-16T04:52:19;100925.84;;;16.25;83.78
38630;BME280;24384;51.988;4.644;2023-07-16T04:54:45;100925.25;;;16.20;82.69
38630;BME280;24384;51.988;4.644;2023-07-16T04:57:10;100930.41;;;16.23;82.79
38630;BME280;24384;51.988;4.644;2023-07-16T04:59:35;100923.91;;;16.28;80.71
38630;BME280;24384;51.988;4.644;2023-07-16T05:02:04;100929.56;;;16.38;80.34
38630;BME280;24384;51.988;4.644;2023-07-16T05:04:30;100935.91;;;16.36;79.37
38630;BME280;24384;51.988;4.644;2023-07-16T05:06:55;100932.13;;;16.40;80.39
38630;BME280;24384;51.988;4.644;2023-07-16T05:09:22;100944.50;;;16.41;80.80
38630;BME280;24384;51.988;4.644;2023-07-16T05:11:47;100937.97;;;16.46;79.97
38630;BME280;24384;51.988;4.644;2023-07-16T05:14:12;100937.47;;;16.40;78.21
38630;BME280;24384;51.988;4.644;2023-07-16T05:16:38;100941.16;;;16.53;78.70
38630;BME280;24384;51.988;4.644;2023-07-16T05:19:03;100942.53;;;16.44;78.93
38630;BME280;24384;51.988;4.644;2023-07-16T05:21:28;100948.34;;;16.51;78.93
38630;BME280;24384;51.988;4.644;2023-07-16T05:23:53;100938.50;;;16.53;79.76
38630;BME280;24384;51.988;4.644;2023-07-16T05:26:19;100950.16;;;16.51;79.15
38630;BME280;24384;51.988;4.644;2023-07-16T05:28:44;100952.16;;;16.47;80.46
38630;BME280;24384;51.988;4.644;2023-07-16T05:31:09;100943.66;;;16.56;82.07
38630;BME280;24384;51.988;4.644;2023-07-16T05:33:34;100945.50;;;16.54;79.63
38630;BME280;24384;51.988;4.644;2023-07-16T05:36:00;100952.47;;;16.57;81.42
38630;BME280;24384;51.988;4.644;2023-07-16T05:38:25;100946.22;;;16.58;81.66
38630;BME280;24384;51.988;4.644;2023-07-16T05:40:50;100949.28;;;16.66;80.44
38630;BME280;24384;51.988;4.644;2023-07-16T05:43:16;100964.44;;;16.65;80.90
38630;BME280;24384;51.988;4.644;2023-07-16T05:45:41;100964.94;;;16.72;80.33
38630;BME280;24384;51.988;4.644;2023-07-16T05:48:06;100959.84;;;16.83;79.08
38630;BME280;24384;51.988;4.644;2023-07-16T05:50:31;100970.97;;;16.92;80.15
38630;BME280;24384;51.988;4.644;2023-07-16T05:52:57;100976.78;;;16.82;79.55
38630;BME280;24384;51.988;4.644;2023-07-16T05:55:22;100984.41;;;16.73;79.53
38630;BME280;24384;51.988;4.644;2023-07-16T05:57:47;100973.94;;;16.86;80.04
38630;BME280;24384;51.988;4.644;2023-07-16T06:00:13;100976.34;;;16.74;80.60
38630;BME280;24384;51.988;4.644;2023-07-16T06:02:39;100975.84;;;16.68;78.72
38630;BME280;24384;51.988;4.644;2023-07-16T06:05:05;100968.34;;;16.74;79.40
38630;BME280;24384;51.988;4.644;2023-07-16T06:07:30;100979.00;;;16.74;79.37
38630;BME280;24384;51.988;4.644;2023-07-16T06:09:56;100988.03;;;16.72;80.25
38630;BME280;24384;51.988;4.644;2023-07-16T06:12:21;100988.16;;;16.86;79.22
38630;BME280;24384;51.988;4.644;2023-07-16T06:14:48;100996.53;;;16.94;79.38
38630;BME280;24384;51.988;4.644;2023-07-16T06:17:13;100992.59;;;17.02;78.17
38630;BME280;24384;51.988;4.644;2023-07-16T06:19:38;100990.41;;;17.08;79.14
38630;BME280;24384;51.988;4.644;2023-07-16T06:22:04;100998.84;;;17.16;78.61
38630;BME280;24384;51.988;4.644;2023-07-16T06:24:29;100992.47;;;17.19;78.12
38630;BME280;24384;51.988;4.644;2023-07-16T06:26:54;101010.22;;;17.34;78.21
38630;BME280;24384;51.988;4.644;2023-07-16T06:29:19;101016.25;;;17.38;78.66
38630;BME280;24384;51.988;4.644;2023-07-16T06:31:55;101011.91;;;17.21;79.59
38630;BME280;24384;51.988;4.644;2023-07-16T06:34:21;101015.47;;;17.06;78.57
38630;BME280;24384;51.988;4.644;2023-07-16T06:36:47;101024.66;;;17.00;79.51
38630;BME280;24384;51.988;4.644;2023-07-16T06:39:12;101026.19;;;16.88;79.21
38630;BME280;24384;51.988;4.644;2023-07-16T06:41:37;101026.72;;;16.95;79.22
38630;BME280;24384;51.988;4.644;2023-07-16T06:44:02;101027.81;;;17.07;80.47
38630;BME280;24384;51.988;4.644;2023-07-16T06:46:28;101030.03;;;17.14;79.96
38630;BME280;24384;51.988;4.644;2023-07-16T06:48:53;101022.34;;;17.40;79.99
38630;BME280;24384;51.988;4.644;2023-07-16T06:51:18;101029.22;;;17.44;79.45
38630;BME280;24384;51.988;4.644;2023-07-16T06:53:43;101040.75;;;17.59;78.85
38630;BME280;24384;51.988;4.644;2023-07-16T06:56:09;101027.56;;;17.72;79.21
38630;BME280;24384;51.988;4.644;2023-07-16T06:58:34;101030.59;;;17.66;78.90
38630;BME280;24384;51.988;4.644;2023-07-16T07:00:59;101039.63;;;17.63;78.77
38630;BME280;24384;51.988;4.644;2023-07-16T07:03:25;101037.69;;;17.51;78.91
38630;BME280;24384;51.988;4.644;2023-07-16T07:05:50;101029.63;;;17.67;79.12
38630;BME280;24384;51.988;4.644;2023-07-16T07:08:15;101050.72;;;17.41;80.14
38630;BME280;24384;51.988;4.644;2023-07-16T07:10:41;101053.38;;;17.41;79.63
38630;BME280;24384;51.988;4.644;2023-07-16T07:13:07;101054.41;;;17.39;79.37
38630;BME280;24384;51.988;4.644;2023-07-16T07:15:32;101055.63;;;17.33;80.66
38630;BME280;24384;51.988;4.644;2023-07-16T07:17:58;101064.16;;;17.24;79.41
38630;BME280;24384;51.988;4.644;2023-07-16T07:20:23;101070.16;;;17.43;81.06
38630;BME280;24384;51.988;4.644;2023-07-16T07:22:48;101067.22;;;17.78;78.48
38630;BME280;24384;51.988;4.644;2023-07-16T07:25:13;101073.19;;;17.98;77.64
38630;BME280;24384;51.988;4.644;2023-07-16T07:27:39;101073.09;;;17.99;76.82
38630;BME280;24384;51.988;4.644;2023-07-16T07:30:05;101059.69;;;17.85;78.38
38630;BME280;24384;51.988;4.644;2023-07-16T07:32:30;101072.59;;;17.62;77.67
38630;BME280;24384;51.988;4.644;2023-07-16T07:34:55;101083.13;;;17.49;77.56
38630;BME280;24384;51.988;4.644;2023-07-16T07:37:20;101098.09;;;17.36;79.83
38630;BME280;24384;51.988;4.644;2023-07-16T07:39:51;101076.94;;;17.33;79.74
38630;BME280;24384;51.988;4.644;2023-07-16T07:42:17;101076.59;;;17.39;81.10
38630;BME280;24384;51.988;4.644;2023-07-16T07:44:42;101071.16;;;17.57;79.95
38630;BME280;24384;51.988;4.644;2023-07-16T07:47:07;101065.59;;;18.06;80.27
38630;BME280;24384;51.988;4.644;2023-07-16T07:49:33;101077.59;;;18.13;77.20
38630;BME280;24384;51.988;4.644;2023-07-16T07:51:59;101075.88;;;18.12;76.79
38630;BME280;24384;51.988;4.644;2023-07-16T07:54:24;101083.22;;;17.78;77.84
38630;BME280;24384;51.988;4.644;2023-07-16T07:56:50;101095.72;;;17.62;79.27
38630;BME280;24384;51.988;4.644;2023-07-16T07:59:15;101091.22;;;17.48;79.56
38630;BME280;24384;51.988;4.644;2023-07-16T08:01:40;101110.94;;;17.29;80.26
38630;BME280;24384;51.988;4.644;2023-07-16T08:04:06;101110.94;;;17.29;80.31
38630;BME280;24384;51.988;4.644;2023-07-16T08:06:31;101117.72;;;17.35;79.98
38630;BME280;24384;51.988;4.644;2023-07-16T08:08:56;101116.06;;;17.48;82.07
38630;BME280;24384;51.988;4.644;2023-07-16T08:11:22;101127.88;;;17.44;80.51
38630;BME280;24384;51.988;4.644;2023-07-16T08:13:47;101138.69;;;17.41;81.05
38630;BME280;24384;51.988;4.644;2023-07-16T08:16:14;101116.72;;;17.68;81.67
38630;BME280;24384;51.988;4.644;2023-07-16T08:18:39;101113.47;;;17.63;79.81
38630;BME280;24384;51.988;4.644;2023-07-16T08:21:04;101130.22;;;17.65;80.09
38630;BME280;24384;51.988;4.644;2023-07-16T08:23:30;101122.19;;;17.81;81.24
38630;BME280;24384;51.988;4.644;2023-07-16T08:25:55;101129.31;;;17.96;78.99
38630;BME280;24384;51.988;4.644;2023-07-16T08:28:20;101114.75;;;18.02;79.72
38630;BME280;24384;51.988;4.644;2023-07-16T08:30:46;101123.47;;;17.89;77.40
38630;BME280;24384;51.988;4.644;2023-07-16T08:33:12;101128.53;;;17.94;79.18
38630;BME280;24384;51.988;4.644;2023-07-16T08:35:39;101126.66;;;17.80;78.51
38630;BME280;24384;51.988;4.644;2023-07-16T08:38:04;101135.25;;;17.85;79.10
38630;BME280;24384;51.988;4.644;2023-07-16T08:40:34;101139.41;;;17.91;80.51
38630;BME280;24384;51.988;4.644;2023-07-16T08:43:00;101136.47;;;18.10;78.44
38630;BME280;24384;51.988;4.644;2023-07-16T08:45:27;101144.72;;;18.21;78.64
38630;BME280;24384;51.988;4.644;2023-07-16T08:47:55;101146.13;;;18.13;77.20
38630;BME280;24384;51.988;4.644;2023-07-16T08:50:21;101146.59;;;18.19;77.49
38630;BME280;24384;51.988;4.644;2023-07-16T08:52:48;101146.22;;;18.25;78.24
38630;BME280;24384;51.988;4.644;2023-07-16T08:55:13;101146.69;;;18.18;77.82
38630;BME280;24384;51.988;4.644;2023-07-16T08:57:39;101137.09;;;18.30;78.92
38630;BME280;24384;51.988;4.644;2023-07-16T09:00:05;101147.88;;;18.28;78.50
38630;BME280;24384;51.988;4.644;2023-07-16T09:02:32;101149.69;;;18.28;78.66
38630;BME280;24384;51.988;4.644;2023-07-16T09:04:58;101151.00;;;18.35;76.17
38630;BME280;24384;51.988;4.644;2023-07-16T09:07:23;101144.44;;;18.26;76.34
38630;BME280;24384;51.988;4.644;2023-07-16T09:09:56;101158.38;;;18.01;78.37
38630;BME280;24384;51.988;4.644;2023-07-16T09:12:25;101156.88;;;17.97;79.40
38630;BME280;24384;51.988;4.644;2023-07-16T09:14:51;101158.25;;;18.18;78.49
38630;BME280;24384;51.988;4.644;2023-07-16T09:17:24;101148.47;;;18.62;79.13
38630;BME280;24384;51.988;4.644;2023-07-16T09:19:50;101157.16;;;18.94;78.32
38630;BME280;24384;51.988;4.644;2023-07-16T09:22:19;101146.09;;;19.01;76.16
38630;BME280;24384;51.988;4.644;2023-07-16T09:24:48;101156.84;;;19.28;76.33
38630;BME280;24384;51.988;4.644;2023-07-16T09:27:14;101157.69;;;19.28;74.78
38630;BME280;24384;51.988;4.644;2023-07-16T09:29:39;101159.19;;;19.60;74.96
38630;BME280;24384;51.988;4.644;2023-07-16T09:32:05;101153.03;;;19.72;74.78
38630;BME280;24384;51.988;4.644;2023-07-16T09:34:31;101177.22;;;19.71;72.35
38630;BME280;24384;51.988;4.644;2023-07-16T09:37:01;101167.47;;;19.84;71.32
38630;BME280;24384;51.988;4.644;2023-07-16T09:39:27;101170.09;;;19.57;70.03
38630;BME280;24384;51.988;4.644;2023-07-16T09:41:53;101165.97;;;19.38;71.78
38630;BME280;24384;51.988;4.644;2023-07-16T09:44:19;101172.84;;;19.42;71.26
38630;BME280;24384;51.988;4.644;2023-07-16T09:46:45;101170.56;;;19.91;72.62
38630;BME280;24384;51.988;4.644;2023-07-16T09:49:11;101172.44;;;19.76;70.77
38630;BME280;24384;51.988;4.644;2023-07-16T09:51:38;101177.63;;;19.79;71.95
38630;BME280;24384;51.988;4.644;2023-07-16T09:54:04;101180.97;;;19.41;71.90
38630;BME280;24384;51.988;4.644;2023-07-16T09:56:35;101181.50;;;19.19;73.53
38630;BME280;24384;51.988;4.644;2023-07-16T09:59:02;101184.44;;;19.28;71.50
38630;BME280;24384;51.988;4.644;2023-07-16T10:01:30;101195.13;;;19.28;73.42
38630;BME280;24384;51.988;4.644;2023-07-16T10:03:56;101190.81;;;19.67;74.36
38630;BME280;24384;51.988;4.644;2023-07-16T10:06:21;101207.22;;;19.76;74.18
38630;BME280;24384;51.988;4.644;2023-07-16T10:08:50;101200.16;;;19.75;72.33
38630;BME280;24384;51.988;4.644;2023-07-16T10:11:17;101204.47;;;19.63;73.61
38630;BME280;24384;51.988;4.644;2023-07-16T10:13:42;101207.84;;;19.52;72.39
38630;BME280;24384;51.988;4.644;2023-07-16T10:16:08;101209.13;;;19.88;73.16
38630;BME280;24384;51.988;4.644;2023-07-16T10:18:36;101214.31;;;19.77;71.92
38630;BME280;24384;51.988;4.644;2023-07-16T10:21:07;101217.31;;;19.58;72.45
38630;BME280;24384;51.988;4.644;2023-07-16T10:23:41;101207.56;;;19.57;72.93
38630;BME280;24384;51.988;4.644;2023-07-16T10:26:09;101213.81;;;19.70;70.31
38630;BME280;24384;51.988;4.644;2023-07-16T10:28:36;101214.00;;;19.81;73.23
38630;BME280;24384;51.988;4.644;2023-07-16T10:31:02;101207.09;;;19.92;73.16
38630;BME280;24384;51.988;4.644;2023-07-16T10:33:27;101215.00;;;20.20;68.52
38630;BME280;24384;51.988;4.644;2023-07-16T10:35:52;101219.69;;;20.17;67.15
38630;BME280;24384;51.988;4.644;2023-07-16T10:38:18;101218.19;;;20.13;67.68
38630;BME280;24384;51.988;4.644;2023-07-16T10:40:45;101222.97;;;20.61;69.64
38630;BME280;24384;51.988;4.644;2023-07-16T10:43:10;101240.38;;;20.28;69.60
38630;BME280;24384;51.988;4.644;2023-07-16T10:45:36;101227.25;;;20.63;69.50
38630;BME280;24384;51.988;4.644;2023-07-16T10:48:02;101226.84;;;20.95;70.67
38630;BME280;24384;51.988;4.644;2023-07-16T10:50:27;101223.16;;;21.22;69.12
38630;BME280;24384;51.988;4.644;2023-07-16T10:52:54;101237.75;;;21.05;66.85
38630;BME280;24384;51.988;4.644;2023-07-16T10:55:20;101240.09;;;20.58;66.74
38630;BME280;24384;51.988;4.644;2023-07-16T10:57:49;101246.81;;;20.65;68.03
38630;BME280;24384;51.988;4.644;2023-07-16T11:00:16;101251.84;;;20.83;67.14
38630;BME280;24384;51.988;4.644;2023-07-16T11:02:42;101253.53;;;21.09;67.03
38630;BME280;24384;51.988;4.644;2023-07-16T11:05:15;101255.78;;;21.16;64.84
38630;BME280;24384;51.988;4.644;2023-07-16T11:07:48;101263.53;;;20.95;65.04
38630;BME280;24384;51.988;4.644;2023-07-16T11:10:17;101263.63;;;20.93;65.68
38630;BME280;24384;51.988;4.644;2023-07-16T11:12:43;101261.03;;;20.79;65.05
38630;BME280;24384;51.988;4.644;2023-07-16T11:15:10;101259.34;;;20.90;66.39
38630;BME280;24384;51.988;4.644;2023-07-16T11:17:37;101258.81;;;20.98;66.26
38630;BME280;24384;51.988;4.644;2023-07-16T11:20:07;101241.88;;;20.72;68.37
38630;BME280;24384;51.988;4.644;2023-07-16T11:22:33;101262.81;;;20.12;68.23
38630;BME280;24384;51.988;4.644;2023-07-16T11:25:01;101263.81;;;20.11;70.32
38630;BME280;24384;51.988;4.644;2023-07-16T11:27:31;101268.28;;;20.11;68.91
38630;BME280;24384;51.988;4.644;2023-07-16T11:29:57;101264.28;;;20.31;68.05
38630;BME280;24384;51.988;4.644;2023-07-16T11:32:34;101264.13;;;20.07;68.65
38630;BME280;24384;51.988;4.644;2023-07-16T11:35:01;101267.13;;;19.88;69.46
38630;BME280;24384;51.988;4.644;2023-07-16T11:37:28;101290.00;;;19.79;67.17
38630;BME280;24384;51.988;4.644;2023-07-16T11:39:55;101276.53;;;20.08;68.49
38630;BME280;24384;51.988;4.644;2023-07-16T11:42:29;101277.59;;;20.05;66.49
38630;BME280;24384;51.988;4.644;2023-07-16T11:44:55;101280.63;;;20.13;67.33
38630;BME280;24384;51.988;4.644;2023-07-16T11:47:21;101275.69;;;20.20;64.86
38630;BME280;24384;51.988;4.644;2023-07-16T11:49:48;101286.19;;;20.63;66.56
38630;BME280;24384;51.988;4.644;2023-07-16T11:52:13;101280.22;;;21.24;65.22
38630;BME280;24384;51.988;4.644;2023-07-16T11:54:38;101283.88;;;20.97;63.87
38630;BME280;24384;51.988;4.644;2023-07-16T11:57:04;101295.41;;;20.59;64.33
38630;BME280;24384;51.988;4.644;2023-07-16T11:59:29;101284.84;;;20.30;64.36
38630;BME280;24384;51.988;4.644;2023-07-16T12:01:54;101287.03;;;20.11;68.33
38630;BME280;24384;51.988;4.644;2023-07-16T12:04:20;101294.47;;;19.93;67.01
38630;BME280;24384;51.988;4.644;2023-07-16T12:06:46;101290.19;;;20.17;65.78
38630;BME280;24384;51.988;4.644;2023-07-16T12:09:11;101295.22;;;20.22;67.11
38630;BME280;24384;51.988;4.644;2023-07-16T12:11:37;101293.38;;;20.50;66.28
38630;BME280;24384;51.988;4.644;2023-07-16T12:14:03;101285.97;;;20.41;65.35
38630;BME280;24384;51.988;4.644;2023-07-16T12:16:29;101291.06;;;20.31;66.27
38630;BME280;24384;51.988;4.644;2023-07-16T12:18:54;101289.28;;;20.17;66.47
38630;BME280;24384;51.988;4.644;2023-07-16T12:21:19;101289.50;;;20.14;67.63
38630;BME280;24384;51.988;4.644;2023-07-16T12:23:44;101290.16;;;20.57;66.98
38630;BME280;24384;51.988;4.644;2023-07-16T12:26:10;101284.06;;;21.33;66.18
38630;BME280;24384;51.988;4.644;2023-07-16T12:28:36;101296.19;;;21.51;64.09
38630;BME280;24384;51.988;4.644;2023-07-16T12:31:01;101305.00;;;21.27;62.70
38630;BME280;24384;51.988;4.644;2023-07-16T12:33:26;101292.56;;;21.14;63.15
38630;BME280;24384;51.988;4.644;2023-07-16T12:35:52;101298.38;;;21.07;65.83
38630;BME280;24384;51.988;4.644;2023-07-16T12:38:17;101298.16;;;21.10;64.06
38630;BME280;24384;51.988;4.644;2023-07-16T12:40:42;101311.88;;;21.19;65.82
38630;BME280;24384;51.988;4.644;2023-07-16T12:43:07;101304.31;;;21.75;66.23
38630;BME280;24384;51.988;4.644;2023-07-16T12:45:33;101293.47;;;21.64;63.12
38630;BME280;24384;51.988;4.644;2023-07-16T12:47:58;101297.38;;;21.34;62.55
38630;BME280;24384;51.988;4.644;2023-07-16T12:50:23;101307.16;;;20.97;65.11